createdAt,value
2018-01-19T00:01:26.780Z,3.33
2018-01-19T00:03:54.680Z,3.20
2018-01-19T00:06:22.600Z,2.93
2018-01-19T00:08:50.481Z,3.60
2018-01-19T00:11:18.489Z,3.43
2018-01-19T00:13:46.360Z,3.47
2018-01-19T00:16:14.140Z,3.23
2018-01-19T00:18:42.101Z,3.17
2018-01-19T00:21:10.020Z,3.20
2018-01-19T00:23:37.860Z,3.27
2018-01-19T00:26:05.780Z,3.40
2018-01-19T00:28:33.660Z,3.23
2018-01-19T00:31:01.500Z,3.30
2018-01-19T00:33:29.400Z,3.77
2018-01-19T00:35:57.240Z,3.30
2018-01-19T00:38:25.081Z,3.37
2018-01-19T00:40:52.881Z,3.23
2018-01-19T00:43:21.000Z,3.50
2018-01-19T00:45:48.884Z,3.80
2018-01-19T00:48:16.720Z,3.00
2018-01-19T00:50:44.640Z,2.77
2018-01-19T00:53:12.561Z,2.53
2018-01-19T00:55:40.780Z,2.00
2018-01-19T00:58:08.580Z,2.40
2018-01-19T01:00:36.498Z,2.87
2018-01-19T01:03:04.378Z,2.40
2018-01-19T01:05:32.218Z,2.80
2018-01-19T01:08:01.058Z,2.93
2018-01-19T01:10:28.858Z,3.07
2018-01-19T01:12:56.819Z,2.70
2018-01-19T01:15:24.659Z,2.37
2018-01-19T01:17:52.380Z,2.13
2018-01-19T01:20:20.318Z,2.43
2018-01-19T01:22:48.099Z,2.83
2018-01-19T01:25:16.098Z,2.80
2018-01-19T01:27:44.339Z,2.43
2018-01-19T01:30:12.540Z,2.80
2018-01-19T01:32:40.622Z,2.90
2018-01-19T01:35:08.849Z,3.20
2018-01-19T01:37:36.698Z,3.20
2018-01-19T01:40:04.578Z,3.00
2018-01-19T01:42:32.738Z,2.93
2018-01-19T01:45:00.538Z,2.70
2018-01-19T01:47:28.339Z,2.67
2018-01-19T01:49:56.221Z,2.80
2018-01-19T01:52:24.099Z,2.60
2018-01-19T01:54:51.898Z,2.50
2018-01-19T01:57:20.118Z,2.60
2018-01-19T01:59:48.341Z,3.60
2018-01-19T02:02:16.480Z,2.93
2018-01-19T02:04:44.578Z,2.33
2018-01-19T02:07:13.258Z,2.97
2018-01-19T02:09:41.358Z,2.50
2018-01-19T02:12:09.218Z,2.53
2018-01-19T02:14:37.139Z,2.70
2018-01-19T02:17:04.918Z,2.70
2018-01-19T02:19:32.818Z,2.70
2018-01-19T02:22:00.839Z,2.50
2018-01-19T02:24:29.118Z,3.00
2018-01-19T02:26:57.039Z,2.80
2018-01-19T02:29:24.858Z,2.97
2018-01-19T02:31:52.879Z,2.83
2018-01-19T02:34:20.678Z,3.33
2018-01-19T02:36:48.538Z,3.10
2018-01-19T02:39:16.519Z,3.03
2018-01-19T02:41:44.339Z,3.07
2018-01-19T02:44:12.498Z,3.07
2018-01-19T02:46:40.359Z,3.50
2018-01-19T02:49:08.219Z,3.00
2018-01-19T02:51:36.059Z,3.37
2018-01-19T02:54:04.092Z,2.90
2018-01-19T02:56:31.980Z,3.20
2018-01-19T02:59:00.199Z,2.80
2018-01-19T03:01:27.999Z,3.03
2018-01-19T03:03:55.821Z,3.00
2018-01-19T03:06:24.058Z,3.10
2018-01-19T03:08:52.241Z,3.23
2018-01-19T03:11:20.159Z,3.23
2018-01-19T03:13:48.139Z,3.50
2018-01-19T03:16:16.022Z,3.40
2018-01-19T03:18:44.279Z,3.27
2018-01-19T03:21:12.081Z,4.00
2018-01-19T03:23:40.018Z,3.93
2018-01-19T03:26:07.959Z,4.13
2018-01-19T03:28:36.098Z,4.47
2018-01-19T03:31:03.960Z,4.37
2018-01-19T03:33:31.818Z,4.07
2018-01-19T03:35:59.701Z,4.37
2018-01-19T03:38:27.641Z,4.63
2018-01-19T03:40:55.698Z,4.73
2018-01-19T03:43:24.258Z,5.10
2018-01-19T03:45:52.174Z,4.50
2018-01-19T03:48:20.220Z,4.50
2018-01-19T03:50:48.058Z,4.23
2018-01-19T03:53:16.020Z,4.50
2018-01-19T03:55:44.059Z,4.83
2018-01-19T03:58:11.898Z,5.10
2018-01-19T04:00:39.738Z,5.03
2018-01-19T04:03:07.682Z,4.63
2018-01-19T04:05:35.540Z,4.77
2018-01-19T04:08:03.359Z,4.77
2018-01-19T04:10:31.118Z,5.13
2018-01-19T04:12:58.940Z,5.30
2018-01-19T04:15:26.921Z,5.70
2018-01-19T04:17:54.698Z,4.80
2018-01-19T04:20:22.578Z,5.20
2018-01-19T04:22:50.541Z,5.30
2018-01-19T04:25:18.459Z,5.40
2018-01-19T04:27:46.599Z,5.47
2018-01-19T04:30:14.558Z,5.10
2018-01-19T04:32:42.398Z,4.83
2018-01-19T04:35:10.378Z,5.40
2018-01-19T04:37:38.298Z,5.33
2018-01-19T04:40:06.981Z,6.27
2018-01-19T04:42:35.078Z,6.97
2018-01-19T04:45:03.098Z,7.90
2018-01-19T04:47:32.223Z,7.13
2018-01-19T04:50:00.162Z,6.10
2018-01-19T04:52:29.671Z,5.60
2018-01-19T04:54:57.660Z,4.03
2018-01-19T04:57:25.617Z,4.13
2018-01-19T04:59:55.468Z,3.80
2018-01-19T05:02:23.423Z,8.33
2018-01-19T05:04:51.270Z,9.03
2018-01-19T05:07:19.463Z,8.40
2018-01-19T05:09:47.663Z,7.40
2018-01-19T05:12:15.743Z,6.70
2018-01-19T05:14:43.623Z,7.17
2018-01-19T05:17:11.603Z,6.07
2018-01-19T05:19:39.603Z,5.73
2018-01-19T05:22:07.424Z,5.30
2018-01-19T05:24:35.683Z,5.27
2018-01-19T05:27:03.603Z,5.03
2018-01-19T05:29:31.583Z,4.97
2018-01-19T05:31:59.683Z,4.87
2018-01-19T05:34:27.643Z,4.70
2018-01-19T05:36:55.964Z,5.30
2018-01-19T05:39:23.840Z,5.20
2018-01-19T05:41:51.739Z,5.63
2018-01-19T05:44:19.539Z,5.90
2018-01-19T05:46:47.740Z,5.83
2018-01-19T05:49:15.543Z,5.80
2018-01-19T05:51:43.382Z,5.17
2018-01-19T05:54:11.360Z,4.67
2018-01-19T05:56:39.279Z,5.27
2018-01-19T05:59:07.259Z,5.17
2018-01-19T06:01:35.511Z,4.97
2018-01-19T06:04:03.427Z,5.40
2018-01-19T06:06:31.307Z,5.60
2018-01-19T06:08:59.391Z,5.80
2018-01-19T06:11:27.691Z,5.50
2018-01-19T06:13:55.523Z,5.20
2018-01-19T06:16:23.482Z,5.77
2018-01-19T06:18:51.582Z,6.23
2018-01-19T06:21:19.502Z,5.97
2018-01-19T06:23:47.503Z,5.80
2018-01-19T06:26:15.427Z,6.63
2018-01-19T06:28:43.733Z,6.83
2018-01-19T06:31:11.786Z,6.93
2018-01-19T06:33:39.842Z,8.37
2018-01-19T06:36:07.578Z,7.23
2018-01-19T06:38:41.995Z,6.77
2018-01-19T06:41:09.833Z,7.57
2018-01-19T06:43:37.698Z,7.23
2018-01-19T06:46:05.438Z,6.90
2018-01-19T06:48:33.201Z,6.50
2018-01-19T06:51:01.138Z,18.10
2018-01-19T06:53:28.958Z,14.17
2018-01-19T06:55:56.899Z,9.87
2018-01-19T06:58:24.819Z,13.33
2018-01-19T07:00:54.479Z,15.57
2018-01-19T07:03:22.298Z,12.27
2018-01-19T07:05:50.438Z,9.97
2018-01-19T07:08:18.238Z,8.37
2018-01-19T07:10:46.184Z,7.70
2018-01-19T07:13:14.041Z,7.50
2018-01-19T07:15:42.338Z,7.17
2018-01-19T07:18:10.258Z,7.27
2018-01-19T07:20:38.559Z,7.27
2018-01-19T07:23:06.618Z,6.87
2018-01-19T07:25:34.500Z,7.00
2018-01-19T07:28:02.381Z,6.23
2018-01-19T07:30:30.318Z,6.87
2018-01-19T07:32:58.199Z,6.87
2018-01-19T07:35:26.466Z,6.77
2018-01-19T07:37:54.378Z,6.50
2018-01-19T07:40:22.238Z,6.37
2018-01-19T07:42:50.341Z,6.80
2018-01-19T07:45:18.209Z,6.30
2018-01-19T07:47:46.888Z,6.07
2018-01-19T07:50:14.780Z,6.27
2018-01-19T07:52:42.602Z,6.13
2018-01-19T07:55:10.460Z,6.23
2018-01-19T07:57:38.358Z,5.50
2018-01-19T08:00:06.158Z,9.53
2018-01-19T08:02:34.019Z,8.53
2018-01-19T08:05:02.525Z,8.60
2018-01-19T08:07:30.244Z,7.00
2018-01-19T08:09:58.718Z,5.90
2018-01-19T08:12:26.618Z,5.40
2018-01-19T08:14:54.439Z,5.13
2018-01-19T08:17:22.198Z,4.23
2018-01-19T08:19:50.498Z,4.93
2018-01-19T08:22:18.298Z,5.10
2018-01-19T08:24:46.168Z,7.00
2018-01-19T08:27:13.978Z,8.23
2018-01-19T08:29:41.738Z,8.03
2018-01-19T08:32:09.622Z,7.63
2018-01-19T08:34:37.422Z,5.83
2018-01-19T08:37:05.293Z,5.17
2018-01-19T08:39:33.021Z,4.83
2018-01-19T08:42:00.901Z,4.30
2018-01-19T08:44:28.800Z,4.63
2018-01-19T08:46:58.446Z,4.60
2018-01-19T08:49:26.365Z,5.20
2018-01-19T08:51:54.101Z,4.17
2018-01-19T08:54:21.800Z,4.20
2018-01-19T08:56:49.560Z,4.67
2018-01-19T08:59:17.480Z,4.43
2018-01-19T09:01:45.339Z,4.77
2018-01-19T09:04:14.160Z,4.57
2018-01-19T09:06:42.020Z,5.00
2018-01-19T09:09:09.840Z,5.33
2018-01-19T09:11:37.760Z,4.97
2018-01-19T09:14:05.560Z,5.20
2018-01-19T09:16:33.379Z,6.00
2018-01-19T09:19:01.259Z,6.03
2018-01-19T09:21:29.127Z,6.47
2018-01-19T09:23:57.079Z,6.43
2018-01-19T09:26:24.939Z,6.27
2018-01-19T09:28:52.764Z,5.97
2018-01-19T09:31:20.561Z,6.67
2018-01-19T09:33:48.480Z,6.47
2018-01-19T09:36:16.819Z,6.47
2018-01-19T09:38:44.730Z,6.47
2018-01-19T09:41:12.639Z,5.83
2018-01-19T09:43:41.419Z,5.60
2018-01-19T09:46:09.679Z,5.90
2018-01-19T09:48:38.299Z,6.07
2018-01-19T09:51:06.260Z,6.23
2018-01-19T09:53:33.961Z,6.03
2018-01-19T09:56:01.940Z,5.97
2018-01-19T09:58:29.798Z,5.77
2018-01-19T10:00:58.152Z,5.93
2018-01-19T10:03:26.081Z,5.90
2018-01-19T10:05:53.899Z,5.63
2018-01-19T10:08:21.821Z,5.77
2018-01-19T10:10:49.779Z,5.97
2018-01-19T10:13:17.679Z,6.90
2018-01-19T10:15:45.559Z,6.57
2018-01-19T10:18:13.500Z,6.50
2018-01-19T10:20:41.280Z,6.63
2018-01-19T10:23:09.563Z,7.00
2018-01-19T10:25:37.539Z,7.50
2018-01-19T10:28:05.360Z,7.20
2018-01-19T10:30:33.581Z,6.30
2018-01-19T10:33:01.561Z,5.37
2018-01-19T10:35:29.340Z,4.27
2018-01-19T10:37:57.661Z,3.63
2018-01-19T10:40:26.620Z,3.00
2018-01-19T10:42:54.482Z,1.70
2018-01-19T10:45:22.323Z,1.80
2018-01-19T10:47:50.761Z,1.13
2018-01-19T10:50:18.521Z,1.37
2018-01-19T10:52:46.980Z,1.30
2018-01-19T10:55:14.820Z,1.30
2018-01-19T10:57:43.449Z,1.40
2018-01-19T11:00:11.781Z,1.10
2018-01-19T11:02:39.601Z,1.00
2018-01-19T11:05:07.502Z,1.30
2018-01-19T11:07:36.561Z,1.23
2018-01-19T11:10:04.301Z,1.10
2018-01-19T11:12:32.940Z,1.70
2018-01-19T11:15:00.921Z,2.00
2018-01-19T11:17:28.870Z,1.73
2018-01-19T11:19:56.583Z,1.33
2018-01-19T11:22:24.365Z,1.00
2018-01-19T11:24:52.543Z,1.13
2018-01-19T11:27:20.386Z,1.10
2018-01-19T11:29:49.546Z,1.20
2018-01-19T11:32:17.640Z,1.10
2018-01-19T11:34:46.239Z,1.20
2018-01-19T11:37:14.081Z,1.20
2018-01-19T11:39:42.139Z,1.30
2018-01-19T11:42:09.834Z,1.33
2018-01-19T11:44:37.778Z,1.47
2018-01-19T11:47:05.659Z,1.40
2018-01-19T11:49:33.614Z,1.30
2018-01-19T11:52:01.439Z,1.53
2018-01-19T11:54:29.360Z,1.47
2018-01-19T11:56:57.298Z,1.30
2018-01-19T11:59:26.120Z,1.40
2018-01-19T12:01:54.019Z,1.40
2018-01-19T12:04:21.858Z,1.20
2018-01-19T12:06:49.667Z,1.47
2018-01-19T12:09:17.539Z,1.20
2018-01-19T12:11:45.378Z,1.50
2018-01-19T12:14:13.220Z,1.30
2018-01-19T12:16:41.103Z,1.50
2018-01-19T12:19:08.960Z,1.10
2018-01-19T12:21:37.040Z,1.10
2018-01-19T12:24:04.958Z,1.00
2018-01-19T12:26:32.982Z,0.90
2018-01-19T12:29:00.782Z,1.10
2018-01-19T12:31:28.678Z,1.00
2018-01-19T12:33:56.538Z,1.20
2018-01-19T12:36:24.259Z,0.97
2018-01-19T12:38:53.039Z,0.90
2018-01-19T12:41:20.901Z,0.90
2018-01-19T12:43:48.819Z,1.10
2018-01-19T12:46:16.638Z,0.90
2018-01-19T12:48:44.538Z,1.00
2018-01-19T12:51:13.601Z,1.00
2018-01-19T12:53:41.421Z,1.00
2018-01-19T12:56:09.427Z,1.20
2018-01-19T12:58:38.181Z,1.03
2018-01-19T13:01:06.048Z,0.90
2018-01-19T13:03:34.046Z,1.00
2018-01-19T13:06:01.946Z,1.30
2018-01-19T13:08:29.785Z,1.00
2018-01-19T13:10:57.676Z,1.10
2018-01-19T13:13:25.506Z,1.40
2018-01-19T13:15:53.466Z,1.60
2018-01-19T13:18:23.546Z,1.80
2018-01-19T13:20:51.365Z,2.23
2018-01-19T13:23:19.367Z,1.20
2018-01-19T13:25:47.265Z,1.30
2018-01-19T13:28:15.125Z,1.10
2018-01-19T13:30:43.085Z,1.53
2018-01-19T13:33:11.046Z,1.40
2018-01-19T13:35:38.919Z,1.13
2018-01-19T13:38:06.879Z,1.07
2018-01-19T13:40:34.720Z,1.10
2018-01-19T13:43:02.580Z,1.03
2018-01-19T13:45:30.380Z,1.00
2018-01-19T13:47:58.300Z,1.60
2018-01-19T13:50:26.199Z,1.40
2018-01-19T13:52:54.119Z,1.30
2018-01-19T13:55:22.179Z,1.27
2018-01-19T13:57:50.483Z,1.20
2018-01-19T14:00:18.319Z,1.20
2018-01-19T14:02:46.179Z,1.17
2018-01-19T14:05:13.939Z,1.20
2018-01-19T14:07:41.821Z,1.03
2018-01-19T14:10:09.682Z,0.97
2018-01-19T14:12:37.739Z,1.07
2018-01-19T14:15:05.439Z,0.90
2018-01-19T14:17:33.399Z,1.07
2018-01-19T14:20:02.500Z,1.10
2018-01-19T14:22:30.299Z,1.50
2018-01-19T14:24:58.299Z,5.63
2018-01-19T14:27:26.463Z,9.10
2018-01-19T14:29:54.399Z,8.80
2018-01-19T14:32:22.259Z,9.37
2018-01-19T14:34:50.147Z,8.90
2018-01-19T14:37:18.019Z,8.50
2018-01-19T14:39:45.939Z,8.27
2018-01-19T14:42:14.410Z,8.73
2018-01-19T14:44:42.359Z,7.87
2018-01-19T14:47:10.161Z,7.57
2018-01-19T14:49:38.222Z,7.20
2018-01-19T14:52:06.019Z,6.60
2018-01-19T14:54:33.959Z,7.50
2018-01-19T14:57:01.759Z,8.93
2018-01-19T14:59:30.200Z,8.90
2018-01-19T15:01:58.142Z,9.10
2018-01-19T15:04:25.939Z,8.47
2018-01-19T15:06:53.840Z,8.23
2018-01-19T15:09:21.669Z,8.53
2018-01-19T15:11:49.619Z,9.00
2018-01-19T15:14:17.759Z,6.13
2018-01-19T15:16:45.500Z,6.57
2018-01-19T15:19:14.942Z,6.57
2018-01-19T15:21:42.842Z,3.00
2018-01-19T15:24:10.619Z,8.53
2018-01-19T15:26:38.639Z,14.73
2018-01-19T15:29:06.561Z,7.50
2018-01-19T15:31:34.621Z,5.20
2018-01-19T15:34:02.559Z,5.60
2018-01-19T15:36:30.379Z,5.17
2018-01-19T15:38:58.359Z,4.00
2018-01-19T15:41:26.348Z,4.47
2018-01-19T15:43:54.300Z,3.97
2018-01-19T15:46:22.119Z,3.70
2018-01-19T15:48:49.979Z,3.73
2018-01-19T15:51:17.827Z,3.00
2018-01-19T15:53:45.659Z,2.67
2018-01-19T15:56:13.461Z,2.80
2018-01-19T16:01:13.440Z,2.00
2018-01-19T16:03:41.360Z,2.37
2018-01-19T16:06:09.340Z,3.30
2018-01-19T16:08:37.279Z,2.50
2018-01-19T16:11:17.669Z,2.20
2018-01-19T16:13:46.549Z,2.07
2018-01-19T16:16:14.540Z,1.87
2018-01-19T16:18:42.380Z,1.90
2018-01-19T16:21:10.340Z,1.57
2018-01-19T16:23:38.159Z,1.90
2018-01-19T16:26:06.001Z,2.00
2018-01-19T16:28:34.084Z,2.37
2018-01-19T16:31:02.379Z,3.33
2018-01-19T16:33:30.299Z,3.07
2018-01-19T16:35:59.199Z,3.67
2018-01-19T16:38:27.200Z,1.80
2018-01-19T16:40:57.000Z,2.10
2018-01-19T16:43:24.840Z,2.87
2018-01-19T16:45:52.820Z,2.97
2018-01-19T16:48:21.539Z,4.83
2018-01-19T16:50:49.406Z,7.60
2018-01-19T16:53:18.247Z,8.00
2018-01-19T16:55:46.300Z,14.70
2018-01-19T16:58:14.200Z,4.13
2018-01-19T17:00:42.624Z,3.30
2018-01-19T17:03:10.533Z,3.40
2018-01-19T17:05:38.526Z,2.80
2018-01-19T17:08:06.403Z,2.97
2018-01-19T17:10:34.419Z,3.27
2018-01-19T17:13:02.471Z,3.17
2018-01-19T17:15:30.699Z,2.37
2018-01-19T17:17:58.581Z,2.10
2018-01-19T17:20:26.421Z,2.00
2018-01-19T17:22:54.762Z,2.17
2018-01-19T17:25:23.559Z,3.17
2018-01-19T17:27:51.462Z,2.60
2018-01-19T17:30:19.360Z,3.00
2018-01-19T17:32:47.179Z,2.73
2018-01-19T17:35:15.121Z,2.60
2018-01-19T17:37:43.343Z,2.47
2018-01-19T17:40:11.380Z,2.30
2018-01-19T17:42:39.181Z,1.93
2018-01-19T17:45:06.941Z,2.30
2018-01-19T17:47:35.320Z,2.00
2018-01-19T17:50:03.081Z,2.10
2018-01-19T17:52:31.380Z,3.97
2018-01-19T17:54:59.361Z,4.87
2018-01-19T17:57:27.323Z,4.40
2018-01-19T17:59:56.089Z,3.60
2018-01-19T18:02:23.880Z,2.87
2018-01-19T18:04:51.582Z,2.63
2018-01-19T18:09:51.258Z,2.40
2018-01-19T18:12:19.256Z,2.10
2018-01-19T18:14:47.008Z,2.00
2018-01-19T18:17:14.740Z,2.13
2018-01-19T18:19:42.601Z,3.73
2018-01-19T18:22:10.344Z,5.90
2018-01-19T18:24:38.125Z,6.03
2018-01-19T18:29:38.501Z,5.60
2018-01-19T18:32:06.280Z,7.17
2018-01-19T18:34:34.842Z,17.70
2018-01-19T18:37:02.623Z,7.10
2018-01-19T18:39:31.184Z,4.10
2018-01-19T18:41:59.784Z,3.63
2018-01-19T18:44:27.683Z,3.07
2018-01-19T18:46:55.545Z,3.73
2018-01-19T18:49:23.285Z,6.00
2018-01-19T18:52:00.874Z,7.83
2018-01-19T18:54:29.503Z,8.20
2018-01-19T18:56:57.338Z,9.70
2018-01-19T18:59:25.790Z,8.63
2018-01-19T19:01:53.578Z,12.00
2018-01-19T19:04:22.140Z,11.90
2018-01-19T19:06:50.079Z,10.57
2018-01-19T19:09:19.144Z,9.10
2018-01-19T19:11:47.043Z,9.83
2018-01-19T19:14:14.818Z,11.80
2018-01-19T19:16:42.722Z,12.67
2018-01-19T19:19:10.701Z,10.17
2018-01-19T19:21:38.462Z,5.57
2018-01-19T19:24:06.463Z,4.77
2018-01-19T19:26:34.526Z,4.20
2018-01-19T19:29:03.403Z,3.77
2018-01-19T19:31:32.022Z,4.33
2018-01-19T19:33:59.823Z,2.93
2018-01-19T19:36:28.566Z,3.00
2018-01-19T19:38:56.662Z,2.83
2018-01-19T19:41:24.482Z,3.70
2018-01-19T19:43:52.662Z,3.50
2018-01-19T19:46:21.262Z,3.80
2018-01-19T19:48:49.082Z,3.80
2018-01-19T19:51:17.783Z,2.53
2018-01-19T19:53:46.103Z,2.23
2018-01-19T19:56:14.083Z,2.53
2018-01-19T19:58:41.943Z,2.77
2018-01-19T20:01:09.862Z,2.30
2018-01-19T20:03:38.742Z,2.50
2018-01-19T20:06:06.763Z,2.70
2018-01-19T20:08:34.705Z,2.20
2018-01-19T20:11:02.784Z,2.70
2018-01-19T20:13:30.722Z,3.80
2018-01-19T20:15:58.582Z,13.63
2018-01-19T20:18:26.503Z,16.23
2018-01-19T20:20:56.684Z,17.77
2018-01-19T20:23:24.663Z,18.47
2018-01-19T20:25:52.989Z,16.37
2018-01-19T20:28:20.784Z,13.87
2018-01-19T20:30:49.323Z,13.60
2018-01-19T20:33:17.164Z,13.73
2018-01-19T20:35:45.004Z,12.53
2018-01-19T20:38:14.121Z,12.23
2018-01-19T20:40:42.738Z,9.97
2018-01-19T20:43:10.641Z,9.47
2018-01-19T20:45:38.538Z,12.43
2018-01-19T20:48:06.460Z,11.13
2018-01-19T20:50:34.393Z,12.23
2018-01-19T20:53:02.422Z,12.20
2018-01-19T20:55:31.018Z,12.33
2018-01-19T20:57:58.900Z,11.47
2018-01-19T21:00:26.821Z,10.57
2018-01-19T21:02:54.698Z,10.67
2018-01-19T21:05:23.145Z,11.83
2018-01-19T21:07:50.989Z,11.17
2018-01-19T21:12:50.813Z,10.10
2018-01-19T21:15:18.800Z,10.53
2018-01-19T21:17:46.941Z,9.93
2018-01-19T21:20:14.785Z,8.83
2018-01-19T21:22:43.847Z,7.70
2018-01-19T21:25:12.182Z,6.77
2018-01-19T21:27:40.301Z,6.43
2018-01-19T21:30:08.261Z,6.00
2018-01-19T21:32:36.441Z,6.20
2018-01-19T21:35:04.099Z,6.60
2018-01-19T21:37:31.923Z,6.40
2018-01-19T21:40:00.066Z,6.37
2018-01-19T21:42:28.500Z,6.37
2018-01-19T21:44:56.563Z,6.67
2018-01-19T21:47:24.343Z,9.03
2018-01-19T21:49:52.500Z,25.87
2018-01-19T21:52:20.422Z,10.73
2018-01-19T21:54:48.344Z,10.07
2018-01-19T21:57:16.224Z,10.20
2018-01-19T21:59:44.120Z,8.90
2018-01-19T22:02:12.144Z,7.43
2018-01-19T22:04:40.744Z,7.67
2018-01-19T22:07:08.738Z,8.13
2018-01-19T22:09:36.699Z,8.80
2018-01-19T22:12:04.598Z,7.70
2018-01-19T22:14:32.478Z,8.77
2018-01-19T22:17:00.478Z,7.37
2018-01-19T22:19:28.478Z,8.63
2018-01-19T22:21:56.319Z,7.73
2018-01-19T22:24:24.479Z,8.57
2018-01-19T22:26:52.238Z,8.63
2018-01-19T22:29:20.698Z,8.00
2018-01-19T22:31:48.658Z,9.83
2018-01-19T22:34:16.619Z,9.47
2018-01-19T22:36:45.179Z,7.90
2018-01-19T22:39:12.979Z,7.90
2018-01-19T22:41:41.138Z,6.97
2018-01-19T22:44:09.038Z,7.30
2018-01-19T22:46:36.858Z,4.77
2018-01-19T22:49:06.882Z,4.20
2018-01-19T22:51:34.818Z,4.40
2018-01-19T22:54:02.658Z,4.60
2018-01-19T22:56:30.578Z,4.60
2018-01-19T22:59:00.259Z,4.60
2018-01-19T23:01:28.178Z,4.80
2018-01-19T23:03:56.458Z,4.20
2018-01-19T23:06:24.502Z,4.10
2018-01-19T23:08:52.318Z,4.30
2018-01-19T23:11:20.958Z,3.93
2018-01-19T23:13:48.779Z,3.90
2018-01-19T23:16:17.339Z,3.60
2018-01-19T23:18:45.298Z,4.10
2018-01-19T23:21:13.138Z,4.67
2018-01-19T23:23:41.038Z,4.30
2018-01-19T23:26:08.898Z,4.17
2018-01-19T23:28:37.138Z,4.00
2018-01-19T23:31:05.738Z,3.73
2018-01-19T23:33:34.579Z,4.17
2018-01-19T23:36:02.498Z,4.67
2018-01-19T23:38:30.338Z,4.10
2018-01-19T23:40:58.504Z,3.90
2018-01-19T23:43:26.461Z,4.03
2018-01-19T23:45:55.220Z,4.30
2018-01-19T23:48:23.058Z,5.03
2018-01-19T23:50:51.058Z,4.90
2018-01-19T23:53:18.938Z,4.50
2018-01-19T23:55:47.058Z,4.33
2018-01-19T23:58:15.218Z,5.47
